Time;durP1;ratioP1;P1;durP2;ratioP2;P2;SDS_P1;SDS_P2;PMS_P1;PMS_P2;Temp;Humidity;BMP_temperature;BMP_pressure;BME280_temperature;BME280_humidity;BME280_pressure;Samples;Min_cycle;Max_cycle;Signal;HPM_P1;HPM_P2
2021/09/23 00:00:53;;;;;;;50.10;29.92;;;12.30;99.90;;;;;;4987636;28;20040;-85
2021/09/23 00:03:31;;;;;;;46.80;31.42;;;12.30;99.90;;;;;;5023494;28;20657;-86
2021/09/23 00:05:57;;;;;;;46.03;30.52;;;12.30;99.90;;;;;;5002783;28;20033;-85
2021/09/23 00:08:23;;;;;;;48.13;31.95;;;12.30;99.90;;;;;;5003377;28;20739;-85
2021/09/23 00:10:53;;;;;;;43.33;30.98;;;12.30;99.90;;;;;;5005022;28;20091;-86
2021/09/23 00:13:18;;;;;;;45.95;31.13;;;12.30;99.90;;;;;;5022094;28;20037;-85
2021/09/23 00:15:45;;;;;;;44.50;31.08;;;12.20;99.90;;;;;;4969578;28;20029;-85
2021/09/23 00:18:15;;;;;;;52.47;32.22;;;12.20;99.90;;;;;;4989099;28;20056;-85
2021/09/23 00:20:45;;;;;;;47.22;31.23;;;12.30;99.90;;;;;;5001387;28;20060;-85
2021/09/23 00:23:11;;;;;;;50.38;33.20;;;12.20;99.90;;;;;;5022298;28;20112;-85
2021/09/23 00:25:38;;;;;;;48.42;31.25;;;12.20;99.90;;;;;;4991101;28;20087;-85
2021/09/23 00:28:06;;;;;;;49.45;32.28;;;12.20;99.90;;;;;;5003722;28;20041;-86
2021/09/23 00:30:32;;;;;;;53.95;32.67;;;12.10;99.90;;;;;;5006231;28;20053;-85
2021/09/23 00:32:58;;;;;;;52.88;32.50;;;12.10;99.90;;;;;;4988257;28;20045;-85
2021/09/23 00:35:25;;;;;;;46.97;30.98;;;12.10;99.90;;;;;;4987172;28;20071;-84
2021/09/23 00:37:51;;;;;;;48.80;31.83;;;12.10;99.90;;;;;;4992343;28;20041;-85
2021/09/23 00:40:17;;;;;;;48.15;31.73;;;12.10;99.90;;;;;;5009423;28;20045;-84
2021/09/23 00:42:47;;;;;;;48.00;32.05;;;12.10;99.90;;;;;;5010351;28;20038;-85
2021/09/23 00:45:15;;;;;;;46.35;31.17;;;12.10;99.90;;;;;;4989365;28;20041;-86
2021/09/23 00:47:45;;;;;;;50.28;31.48;;;12.10;99.90;;;;;;5009815;28;20046;-87
2021/09/23 00:50:12;;;;;;;45.63;31.00;;;12.00;99.90;;;;;;5008554;28;20037;-87
2021/09/23 00:52:40;;;;;;;52.78;31.15;;;12.00;99.90;;;;;;5009074;28;20034;-85
2021/09/23 00:55:08;;;;;;;46.67;31.23;;;12.00;99.90;;;;;;5008560;28;20083;-87
2021/09/23 00:57:34;;;;;;;49.10;31.33;;;12.00;99.90;;;;;;5007565;28;20405;-87
2021/09/23 01:00:00;;;;;;;45.60;30.48;;;12.00;99.90;;;;;;5009104;28;20037;-87
2021/09/23 01:02:26;;;;;;;49.58;30.42;;;12.00;99.90;;;;;;4993116;28;20037;-85
2021/09/23 01:04:52;;;;;;;46.08;31.02;;;12.00;99.90;;;;;;4992576;28;20045;-86
2021/09/23 01:07:21;;;;;;;53.28;31.38;;;12.00;99.90;;;;;;4977756;28;20109;-86
2021/09/23 01:10:04;;;;;;;45.28;30.13;;;12.00;99.90;;;;;;5010712;28;20522;-87
2021/09/23 01:12:33;;;;;;;53.05;33.63;;;12.00;99.90;;;;;;4972443;28;20733;-88
2021/09/23 01:15:00;;;;;;;50.03;31.30;;;12.00;99.90;;;;;;4973124;28;20034;-84
2021/09/23 01:17:27;;;;;;;51.45;32.03;;;12.00;99.90;;;;;;4958230;28;20038;-85
2021/09/23 01:19:52;;;;;;;53.13;32.55;;;12.00;99.90;;;;;;4975227;28;20217;-86
2021/09/23 01:22:19;;;;;;;51.13;32.67;;;12.00;99.90;;;;;;4967712;28;20034;-84
2021/09/23 01:24:45;;;;;;;53.13;33.60;;;12.00;99.90;;;;;;4972949;28;20221;-84
2021/09/23 01:27:12;;;;;;;52.88;34.63;;;11.90;99.90;;;;;;4972256;28;20033;-85
2021/09/23 01:29:39;;;;;;;57.55;34.22;;;11.90;99.90;;;;;;5002678;28;20043;-85
2021/09/23 01:32:06;;;;;;;54.15;34.30;;;12.00;99.90;;;;;;4971500;28;20034;-83
2021/09/23 01:34:36;;;;;;;57.97;35.65;;;11.90;99.90;;;;;;4972648;28;20504;-86
2021/09/23 01:37:05;;;;;;;57.35;34.85;;;11.90;99.90;;;;;;4974115;28;20042;-89
2021/09/23 01:39:31;;;;;;;55.13;35.05;;;11.90;99.90;;;;;;4940652;28;20549;-85
2021/09/23 01:41:57;;;;;;;55.60;34.42;;;11.90;99.90;;;;;;4973316;28;20034;-86
2021/09/23 01:44:26;;;;;;;53.47;34.53;;;11.90;99.90;;;;;;5003700;28;20564;-87
2021/09/23 01:46:52;;;;;;;57.42;36.75;;;11.90;99.90;;;;;;4986786;28;20056;-87
2021/09/23 01:49:18;;;;;;;55.28;35.78;;;11.90;99.90;;;;;;4968967;28;20054;-86
2021/09/23 01:51:44;;;;;;;58.63;35.25;;;11.90;99.90;;;;;;4982164;28;20046;-85
2021/09/23 01:54:10;;;;;;;56.90;35.22;;;11.90;99.90;;;;;;4970149;28;20034;-86
2021/09/23 01:56:36;;;;;;;54.47;35.30;;;11.90;99.90;;;;;;4989086;28;20109;-85
2021/09/23 01:59:01;;;;;;;57.28;35.05;;;11.90;99.90;;;;;;4987383;28;20505;-86
2021/09/23 02:01:27;;;;;;;55.15;35.05;;;11.90;99.90;;;;;;4972640;28;20038;-85
2021/09/23 02:03:53;;;;;;;55.60;33.40;;;11.90;99.90;;;;;;4985455;28;20042;-85
2021/09/23 02:06:19;;;;;;;50.47;34.03;;;11.90;99.90;;;;;;4987395;28;20041;-84
2021/09/23 02:08:44;;;;;;;54.28;34.10;;;11.90;99.90;;;;;;4962336;28;20049;-87
2021/09/23 02:11:14;;;;;;;51.45;33.42;;;11.90;99.90;;;;;;5004740;28;20507;-87
2021/09/23 02:13:40;;;;;;;54.42;35.70;;;11.90;99.90;;;;;;4992108;28;20075;-85
2021/09/23 02:16:07;;;;;;;54.85;33.42;;;11.90;99.90;;;;;;5005719;28;20037;-85
2021/09/23 02:18:33;;;;;;;50.03;33.28;;;11.90;99.90;;;;;;5004820;28;20396;-86
2021/09/23 02:20:58;;;;;;;52.25;33.53;;;11.90;99.90;;;;;;5006214;28;20238;-87
2021/09/23 02:23:24;;;;;;;54.60;34.28;;;12.00;99.90;;;;;;4993487;28;20061;-87
2021/09/23 02:25:50;;;;;;;57.42;34.33;;;12.00;99.90;;;;;;4991160;28;20103;-87
2021/09/23 02:28:16;;;;;;;52.40;33.13;;;11.90;99.90;;;;;;4990677;28;20045;-85
2021/09/23 02:30:42;;;;;;;54.95;33.83;;;12.00;99.90;;;;;;4989509;28;20034;-88
2021/09/23 02:33:08;;;;;;;54.72;33.63;;;12.00;99.90;;;;;;4973288;28;20061;-85
2021/09/23 02:35:34;;;;;;;52.70;32.85;;;12.00;99.90;;;;;;4990766;28;20124;-87
2021/09/23 02:38:00;;;;;;;55.53;33.05;;;12.00;99.90;;;;;;5024347;28;20100;-86
2021/09/23 02:40:32;;;;;;;55.38;32.00;;;12.00;99.90;;;;;;5002143;28;20084;-88
2021/09/23 02:42:57;;;;;;;53.20;33.15;;;12.00;99.90;;;;;;5021867;28;20037;-86
2021/09/23 02:45:26;;;;;;;52.20;32.65;;;12.00;99.90;;;;;;4990015;28;20103;-86
2021/09/23 02:47:52;;;;;;;54.88;32.75;;;12.10;99.90;;;;;;5007037;28;20042;-86
2021/09/23 02:50:17;;;;;;;50.85;32.38;;;12.10;99.90;;;;;;4992753;28;20045;-86
2021/09/23 02:52:43;;;;;;;55.72;32.70;;;12.10;99.90;;;;;;4988829;28;20464;-85
2021/09/23 02:55:09;;;;;;;61.85;34.55;;;12.10;99.90;;;;;;5002481;28;20061;-87
2021/09/23 02:57:35;;;;;;;53.85;32.78;;;12.20;99.90;;;;;;5003027;28;20156;-86
2021/09/23 03:00:01;;;;;;;57.35;32.50;;;12.20;99.90;;;;;;4989907;28;20049;-86
2021/09/23 03:02:27;;;;;;;51.10;32.10;;;12.20;99.90;;;;;;5018294;28;20511;-86
2021/09/23 03:05:02;;;;;;;59.20;33.92;;;12.20;99.90;;;;;;4970570;28;20072;-84
2021/09/23 03:07:27;;;;;;;56.33;32.20;;;12.30;99.90;;;;;;5003446;28;20119;-85
2021/09/23 03:09:56;;;;;;;49.25;31.48;;;12.30;99.90;;;;;;4974812;28;20068;-85
2021/09/23 03:12:22;;;;;;;53.13;32.22;;;12.30;99.90;;;;;;5003026;28;20030;-86
2021/09/23 03:14:53;;;;;;;50.83;31.80;;;12.30;99.90;;;;;;4977257;28;20030;-87
2021/09/23 03:17:19;;;;;;;50.50;31.35;;;12.40;99.90;;;;;;5005091;28;20045;-86
2021/09/23 03:19:45;;;;;;;51.72;31.58;;;12.40;99.90;;;;;;4990136;28;20049;-85
2021/09/23 03:22:20;;;;;;;53.78;33.55;;;12.30;99.90;;;;;;4974930;28;20038;-85
2021/09/23 03:24:47;;;;;;;56.88;32.72;;;12.40;99.90;;;;;;5002379;28;20045;-86
2021/09/23 03:27:23;;;;;;;56.95;33.72;;;12.40;99.90;;;;;;5005483;28;20484;-87
2021/09/23 03:29:49;;;;;;;56.85;33.15;;;12.40;99.90;;;;;;4990538;28;20116;-86
2021/09/23 03:32:15;;;;;;;51.28;31.90;;;12.40;99.90;;;;;;4985573;28;20546;-87
2021/09/23 03:34:41;;;;;;;55.47;33.30;;;12.40;99.90;;;;;;5004578;28;20044;-85
2021/09/23 03:37:07;;;;;;;53.33;33.60;;;12.40;99.90;;;;;;5004174;28;20116;-86
2021/09/23 03:39:33;;;;;;;58.92;33.92;;;12.40;99.90;;;;;;4970681;28;20558;-85
2021/09/23 03:42:07;;;;;;;55.80;33.85;;;12.50;99.90;;;;;;4983884;28;20037;-87
2021/09/23 03:44:33;;;;;;;54.42;32.70;;;12.50;99.90;;;;;;5010642;28;20079;-86
2021/09/23 03:47:02;;;;;;;50.50;33.25;;;12.50;99.90;;;;;;5007088;28;20077;-86
2021/09/23 03:49:29;;;;;;;60.53;34.00;;;12.50;99.90;;;;;;4992842;28;20099;-86
2021/09/23 03:51:56;;;;;;;52.63;34.25;;;12.50;99.90;;;;;;4992037;28;20567;-86
2021/09/23 03:54:24;;;;;;;62.33;34.10;;;12.60;99.90;;;;;;4991768;28;20464;-87
2021/09/23 03:56:50;;;;;;;49.83;33.40;;;12.60;99.90;;;;;;5006531;28;20113;-85
2021/09/23 03:59:16;;;;;;;59.83;35.20;;;12.60;99.90;;;;;;5007895;28;20034;-86
2021/09/23 04:01:42;;;;;;;53.65;33.08;;;12.60;99.90;;;;;;4976821;28;20047;-86
2021/09/23 04:04:09;;;;;;;57.00;34.45;;;12.60;99.90;;;;;;5007207;28;20509;-86
2021/09/23 04:06:42;;;;;;;59.40;34.03;;;12.60;99.90;;;;;;4992040;28;20037;-87
2021/09/23 04:09:09;;;;;;;55.00;34.83;;;12.60;99.90;;;;;;5013712;28;20082;-88
2021/09/23 04:11:35;;;;;;;61.75;35.78;;;12.60;99.90;;;;;;4993337;28;20065;-88
2021/09/23 04:14:13;;;;;;;63.38;34.85;;;12.60;99.90;;;;;;5005580;28;20121;-87
2021/09/23 04:16:38;;;;;;;61.97;36.53;;;12.70;99.90;;;;;;4978881;28;20034;-85
2021/09/23 04:19:04;;;;;;;56.45;36.13;;;12.70;99.90;;;;;;5020385;28;20059;-86
2021/09/23 04:21:31;;;;;;;56.00;35.25;;;12.70;99.90;;;;;;4985246;28;20065;-86
2021/09/23 04:24:00;;;;;;;63.47;36.67;;;12.70;99.90;;;;;;5009201;28;20037;-86
2021/09/23 04:26:28;;;;;;;64.18;38.05;;;12.80;99.90;;;;;;4973030;28;20042;-86
2021/09/23 04:28:54;;;;;;;58.72;35.92;;;12.80;99.90;;;;;;4991236;28;20044;-86
2021/09/23 04:31:23;;;;;;;64.97;37.10;;;12.80;99.90;;;;;;4985007;28;20038;-87
2021/09/23 04:33:49;;;;;;;64.22;38.35;;;12.80;99.90;;;;;;4987174;28;20041;-86
2021/09/23 04:36:17;;;;;;;61.40;36.00;;;12.90;99.90;;;;;;4995029;28;20100;-88
2021/09/23 04:38:45;;;;;;;58.42;37.88;;;12.90;99.90;;;;;;5010420;28;20041;-85
2021/09/23 04:41:11;;;;;;;59.00;37.50;;;12.80;99.90;;;;;;5012317;28;20564;-87
2021/09/23 04:43:39;;;;;;;61.78;37.45;;;12.90;99.90;;;;;;4993495;28;20037;-87
2021/09/23 04:46:05;;;;;;;61.15;37.60;;;12.90;99.90;;;;;;4992105;28;20509;-88
2021/09/23 04:48:30;;;;;;;63.78;38.30;;;12.90;99.90;;;;;;5001207;28;20033;-84
2021/09/23 04:50:56;;;;;;;66.28;39.83;;;12.90;99.90;;;;;;4988640;28;20053;-86
2021/09/23 04:53:22;;;;;;;63.28;38.08;;;12.90;99.90;;;;;;4993101;28;20519;-86
2021/09/23 04:55:48;;;;;;;61.10;38.70;;;12.90;99.90;;;;;;4990273;28;20056;-85
2021/09/23 04:58:14;;;;;;;64.40;38.38;;;12.80;99.90;;;;;;4975108;28;20043;-86
2021/09/23 05:00:39;;;;;;;56.40;36.85;;;12.80;99.90;;;;;;4986105;28;20132;-87
2021/09/23 05:03:06;;;;;;;61.88;37.70;;;12.80;99.90;;;;;;5011875;28;20044;-86
2021/09/23 05:05:31;;;;;;;61.50;39.08;;;12.70;99.90;;;;;;5035989;28;20042;-86
2021/09/23 05:08:00;;;;;;;58.35;38.05;;;12.60;99.90;;;;;;4982335;28;20444;-86
2021/09/23 05:10:28;;;;;;;57.10;37.00;;;12.50;99.90;;;;;;5010882;28;20041;-86
2021/09/23 05:12:54;;;;;;;68.10;38.47;;;12.50;99.90;;;;;;5004027;28;20041;-87
2021/09/23 05:15:20;;;;;;;58.63;37.17;;;12.40;99.90;;;;;;4977346;28;20087;-85
2021/09/23 05:17:46;;;;;;;60.50;37.85;;;12.40;99.90;;;;;;4993656;28;20418;-87
2021/09/23 05:20:12;;;;;;;66.20;40.13;;;12.40;99.90;;;;;;5023263;28;20106;-89
2021/09/23 05:22:38;;;;;;;61.33;38.95;;;12.40;99.90;;;;;;4994560;28;20041;-87
2021/09/23 05:25:04;;;;;;;64.43;39.10;;;12.40;99.90;;;;;;5004253;28;20175;-86
2021/09/23 05:27:30;;;;;;;64.85;40.42;;;12.40;99.90;;;;;;4997677;28;20033;-90
2021/09/23 05:30:00;;;;;;;64.28;38.13;;;12.40;99.90;;;;;;5010284;28;20049;-89
2021/09/23 05:32:27;;;;;;;65.90;40.17;;;12.40;99.90;;;;;;5002265;28;20037;-87
2021/09/23 05:34:53;;;;;;;62.45;38.67;;;12.30;99.90;;;;;;5018221;28;20034;-88
2021/09/23 05:37:19;;;;;;;60.00;39.10;;;12.30;99.90;;;;;;5009257;28;20675;-88
2021/09/23 05:39:45;;;;;;;61.15;39.42;;;12.30;99.90;;;;;;5010140;28;20124;-87
2021/09/23 05:42:10;;;;;;;71.82;41.28;;;12.20;99.90;;;;;;4978342;28;20037;-88
2021/09/23 05:44:36;;;;;;;69.47;42.30;;;12.20;99.90;;;;;;4991401;28;20404;-88
2021/09/23 05:47:02;;;;;;;71.45;41.55;;;12.20;99.90;;;;;;5027151;28;20041;-88
2021/09/23 05:49:28;;;;;;;67.43;41.15;;;12.20;99.90;;;;;;4974124;28;20038;-88
2021/09/23 05:51:55;;;;;;;71.50;42.65;;;12.20;99.90;;;;;;4975011;28;20128;-88
2021/09/23 05:54:22;;;;;;;69.78;42.10;;;12.20;99.90;;;;;;4989007;28;20034;-88
2021/09/23 05:56:49;;;;;;;75.80;45.20;;;12.20;99.90;;;;;;5012659;28;20488;-86
2021/09/23 05:59:24;;;;;;;70.80;42.25;;;12.20;99.90;;;;;;5023190;28;20052;-86
2021/09/23 06:01:55;;;;;;;71.82;42.80;;;12.20;99.90;;;;;;4986430;28;20038;-85
2021/09/23 06:04:23;;;;;;;78.03;44.00;;;12.20;99.90;;;;;;4973457;28;20049;-84
2021/09/23 06:06:49;;;;;;;81.93;46.53;;;12.10;99.90;;;;;;5016093;28;20049;-85
2021/09/23 06:09:15;;;;;;;77.13;45.38;;;12.10;99.90;;;;;;5019684;28;20124;-85
2021/09/23 06:11:45;;;;;;;78.60;44.70;;;12.10;99.90;;;;;;5023343;28;20045;-86
2021/09/23 06:14:13;;;;;;;83.47;47.38;;;12.20;99.90;;;;;;4965878;28;20044;-85
2021/09/23 06:16:39;;;;;;;78.47;47.45;;;12.10;99.90;;;;;;5006997;28;20041;-86
2021/09/23 06:19:10;;;;;;;81.40;47.28;;;12.20;99.90;;;;;;5003342;28;20374;-85
2021/09/23 06:21:36;;;;;;;77.22;48.00;;;12.20;99.90;;;;;;4990352;28;20075;-84
2021/09/23 06:24:13;;;;;;;85.25;48.85;;;12.20;99.90;;;;;;4996693;28;20447;-86
2021/09/23 06:26:52;;;;;;;84.18;48.53;;;12.20;99.90;;;;;;4991291;28;20038;-87
2021/09/23 06:29:18;;;;;;;83.40;48.35;;;12.30;99.90;;;;;;5000235;28;20125;-86
2021/09/23 06:31:54;;;;;;;81.30;48.58;;;12.30;99.90;;;;;;4985221;28;20062;-86
2021/09/23 06:34:23;;;;;;;91.57;51.65;;;12.40;99.90;;;;;;5028290;28;20045;-86
2021/09/23 06:36:49;;;;;;;85.10;48.72;;;12.40;99.90;;;;;;4983123;28;20033;-86
2021/09/23 06:39:19;;;;;;;83.43;49.50;;;12.40;99.90;;;;;;5006329;28;20093;-85
2021/09/23 06:41:45;;;;;;;81.25;47.83;;;12.40;99.90;;;;;;4982180;28;20427;-87
2021/09/23 06:44:11;;;;;;;88.38;49.53;;;12.40;99.90;;;;;;4995679;28;20038;-87
2021/09/23 06:46:49;;;;;;;88.70;50.63;;;12.50;99.90;;;;;;4994297;28;20045;-86
2021/09/23 06:49:16;;;;;;;82.88;50.13;;;12.40;99.90;;;;;;5004747;28;20048;-85
2021/09/23 06:51:44;;;;;;;86.45;51.28;;;12.50;99.90;;;;;;4986747;28;20037;-88
2021/09/23 06:54:10;;;;;;;89.47;50.78;;;12.50;99.90;;;;;;5005378;28;20037;-85
2021/09/23 06:56:37;;;;;;;86.32;51.28;;;12.50;99.90;;;;;;4969507;28;20543;-86
2021/09/23 06:59:03;;;;;;;85.93;51.72;;;12.60;99.90;;;;;;5018689;28;20041;-86
2021/09/23 07:01:29;;;;;;;88.32;51.53;;;12.60;99.90;;;;;;4998614;28;20124;-85
2021/09/23 07:03:55;;;;;;;85.20;51.72;;;12.60;99.90;;;;;;4981005;28;20030;-86
2021/09/23 07:06:21;;;;;;;86.05;49.38;;;12.60;99.90;;;;;;4974975;28;20041;-86
2021/09/23 07:08:49;;;;;;;89.68;52.08;;;12.70;99.90;;;;;;4972457;28;20045;-86
2021/09/23 07:11:15;;;;;;;87.88;51.38;;;12.80;99.90;;;;;;4975583;28;20047;-85
2021/09/23 07:13:41;;;;;;;89.97;52.03;;;12.80;99.90;;;;;;4985825;28;20125;-86
2021/09/23 07:16:07;;;;;;;88.07;51.88;;;12.90;99.90;;;;;;4986670;28;20053;-85
2021/09/23 07:18:33;;;;;;;93.45;52.90;;;13.00;99.90;;;;;;5018215;28;20073;-85
2021/09/23 07:20:59;;;;;;;86.57;50.55;;;13.10;99.90;;;;;;5003404;28;20067;-85
2021/09/23 07:23:26;;;;;;;88.18;51.33;;;13.20;99.90;;;;;;4976123;28;20038;-84
2021/09/23 07:25:53;;;;;;;84.63;51.40;;;13.30;99.90;;;;;;4988776;28;20099;-86
2021/09/23 07:28:19;;;;;;;83.68;51.40;;;13.40;99.90;;;;;;4992136;28;20403;-86
2021/09/23 07:30:45;;;;;;;83.88;50.65;;;13.50;99.90;;;;;;5008866;28;20038;-85
2021/09/23 07:33:13;;;;;;;94.47;52.90;;;13.60;99.90;;;;;;4996205;28;20087;-83
2021/09/23 07:35:39;;;;;;;94.43;52.40;;;13.70;99.90;;;;;;5007100;28;20042;-87
2021/09/23 07:38:08;;;;;;;87.65;50.08;;;13.80;99.90;;;;;;4987154;28;20519;-87
2021/09/23 07:40:34;;;;;;;91.88;51.58;;;14.00;99.90;;;;;;4988998;28;20049;-85
2021/09/23 07:43:00;;;;;;;80.15;47.05;;;14.20;99.90;;;;;;4986710;28;20137;-86
2021/09/23 07:45:29;;;;;;;68.45;42.08;;;14.40;99.90;;;;;;5004051;28;20128;-87
2021/09/23 07:47:55;;;;;;;66.22;40.10;;;14.50;99.90;;;;;;4994528;28;20120;-86
2021/09/23 07:50:21;;;;;;;68.22;40.15;;;14.70;99.90;;;;;;4985837;28;20041;-84
2021/09/23 07:52:59;;;;;;;67.78;40.45;;;14.80;99.90;;;;;;5017753;28;20061;-87
2021/09/23 07:55:25;;;;;;;61.08;37.75;;;15.00;99.90;;;;;;4987187;28;20471;-85
2021/09/23 07:57:54;;;;;;;64.50;38.60;;;15.10;99.90;;;;;;4986245;28;20069;-87
2021/09/23 08:00:23;;;;;;;62.80;38.17;;;15.20;99.90;;;;;;4996882;28;20548;-87
2021/09/23 08:02:52;;;;;;;58.88;36.03;;;15.20;99.90;;;;;;4998671;28;20038;-86
2021/09/23 08:05:20;;;;;;;59.78;37.47;;;15.20;99.90;;;;;;5001358;28;20061;-86
2021/09/23 08:07:48;;;;;;;57.63;36.92;;;15.30;99.90;;;;;;5008893;28;20041;-85
2021/09/23 08:10:15;;;;;;;58.92;35.53;;;15.30;99.90;;;;;;5000057;28;20117;-87
2021/09/23 08:12:45;;;;;;;57.50;35.60;;;15.40;99.90;;;;;;5008096;28;20049;-89
2021/09/23 08:15:12;;;;;;;57.60;35.50;;;15.40;99.90;;;;;;4992339;28;20048;-88
2021/09/23 08:17:38;;;;;;;52.88;34.92;;;15.40;99.90;;;;;;4969241;28;20038;-87
2021/09/23 08:20:19;;;;;;;55.90;34.55;;;15.50;99.90;;;;;;4991474;28;20421;-87
2021/09/23 08:22:52;;;;;;;62.92;36.90;;;15.50;99.90;;;;;;5014967;28;20042;-89
2021/09/23 08:25:23;;;;;;;57.47;35.57;;;15.60;99.90;;;;;;5003542;28;20055;-88
2021/09/23 08:27:49;;;;;;;57.28;34.42;;;15.60;99.90;;;;;;4974330;28;20850;-86
2021/09/23 08:30:15;;;;;;;54.80;34.28;;;15.60;99.90;;;;;;5012620;28;20072;-87
2021/09/23 08:32:41;;;;;;;55.13;34.15;;;15.70;99.90;;;;;;5006184;28;20052;-86
2021/09/23 08:35:08;;;;;;;54.35;34.63;;;15.70;99.90;;;;;;4985579;28;20551;-90
2021/09/23 08:37:35;;;;;;;54.90;34.35;;;15.70;99.90;;;;;;4983745;28;20541;-86
2021/09/23 08:40:09;;;;;;;57.85;36.75;;;15.70;99.90;;;;;;4986229;28;20049;-88
2021/09/23 08:42:41;;;;;;;56.38;37.10;;;15.80;99.90;;;;;;5004269;28;21386;-86
2021/09/23 08:45:21;;;;;;;59.20;35.72;;;15.80;99.90;;;;;;4988052;28;21593;-90
2021/09/23 08:48:08;;;;;;;56.50;36.30;;;15.80;99.90;;;;;;4998611;28;20489;-87
2021/09/23 08:50:37;;;;;;;56.53;34.25;;;15.80;99.90;;;;;;4989889;28;20030;-89
2021/09/23 08:53:05;;;;;;;51.03;32.33;;;15.90;99.90;;;;;;4990503;28;20046;-86
2021/09/23 08:55:32;;;;;;;48.22;32.92;;;16.00;99.90;;;;;;4989978;28;20040;-87
2021/09/23 08:58:06;;;;;;;50.28;31.17;;;16.00;99.90;;;;;;4988438;28;20037;-90
2021/09/23 09:00:34;;;;;;;49.58;31.45;;;16.10;99.90;;;;;;4970218;28;20041;-86
2021/09/23 09:03:09;;;;;;;47.28;29.90;;;16.20;99.90;;;;;;4980556;28;20502;-85
2021/09/23 09:06:05;;;;;;;41.00;26.58;;;16.30;99.90;;;;;;5014447;28;20038;-89
2021/09/23 09:08:33;;;;;;;42.75;26.17;;;16.30;99.90;;;;;;5014249;28;20037;-86
2021/09/23 09:11:01;;;;;;;43.58;25.33;;;16.30;99.90;;;;;;5002519;28;20045;-87
2021/09/23 09:13:35;;;;;;;40.22;24.25;;;16.40;99.90;;;;;;5011298;28;20030;-90
2021/09/23 09:16:25;;;;;;;37.20;23.77;;;16.40;99.90;;;;;;5014202;28;20064;-88
2021/09/23 09:18:54;;;;;;;39.60;23.25;;;16.40;99.90;;;;;;5001022;28;20041;-88
2021/09/23 09:21:23;;;;;;;31.75;20.10;;;16.50;99.90;;;;;;5005633;28;20048;-86
2021/09/23 09:23:50;;;;;;;31.63;18.42;;;16.50;99.90;;;;;;5003833;28;20467;-86
2021/09/23 09:26:35;;;;;;;30.60;17.50;;;16.60;99.90;;;;;;5006118;28;20222;-89
2021/09/23 09:29:07;;;;;;;25.17;14.63;;;16.70;99.90;;;;;;5002509;28;20430;-87
2021/09/23 09:31:35;;;;;;;19.02;12.63;;;16.90;99.90;;;;;;5003733;28;20087;-88
2021/09/23 09:34:04;;;;;;;16.52;10.85;;;17.00;99.90;;;;;;5005728;28;20045;-89
2021/09/23 09:36:34;;;;;;;22.27;9.02;;;17.10;99.90;;;;;;5005205;28;20037;-83
2021/09/23 09:39:04;;;;;;;12.80;5.88;;;17.20;99.90;;;;;;5010931;28;20269;-87
2021/09/23 09:41:34;;;;;;;14.73;6.90;;;17.30;99.90;;;;;;4997655;28;20053;-89
2021/09/23 09:44:03;;;;;;;11.82;6.05;;;17.30;99.80;;;;;;4993685;28;20102;-85
2021/09/23 09:46:31;;;;;;;9.18;5.18;;;17.40;99.70;;;;;;4967414;28;20389;-88
2021/09/23 09:48:58;;;;;;;9.65;5.18;;;17.50;99.70;;;;;;4986054;28;20042;-84
2021/09/23 09:51:36;;;;;;;10.63;4.50;;;17.50;99.50;;;;;;4997103;28;20034;-87
2021/09/23 09:54:03;;;;;;;13.20;4.00;;;17.60;99.50;;;;;;5002012;28;20865;-84
2021/09/23 09:56:32;;;;;;;9.93;4.10;;;17.70;98.80;;;;;;4999284;28;20033;-85
2021/09/23 09:59:13;;;;;;;6.65;3.53;;;17.80;98.40;;;;;;4999159;28;20073;-83
2021/09/23 10:01:42;;;;;;;9.40;4.20;;;17.90;98.20;;;;;;5013602;28;20061;-84
2021/09/23 10:04:10;;;;;;;8.55;3.75;;;18.00;98.30;;;;;;5014371;28;20129;-82
2021/09/23 10:06:38;;;;;;;17.15;4.18;;;18.00;97.60;;;;;;5001665;28;20052;-84
2021/09/23 10:09:12;;;;;;;5.90;3.58;;;18.00;97.40;;;;;;5009782;28;20037;-84
2021/09/23 10:11:46;;;;;;;7.13;3.63;;;17.90;97.40;;;;;;5002007;28;20805;-85
2021/09/23 10:14:16;;;;;;;10.68;3.17;;;17.90;97.40;;;;;;4994501;28;20356;-86
2021/09/23 10:16:42;;;;;;;11.13;3.22;;;17.80;97.40;;;;;;5030304;28;20037;-87
2021/09/23 10:19:09;;;;;;;10.45;3.58;;;17.80;97.30;;;;;;4980817;28;20045;-83
2021/09/23 10:21:35;;;;;;;11.10;3.55;;;17.80;97.60;;;;;;4980330;28;20034;-87
2021/09/23 10:24:04;;;;;;;6.88;3.05;;;17.80;97.50;;;;;;5012994;28;20038;-85
2021/09/23 10:26:51;;;;;;;5.60;3.55;;;17.70;97.30;;;;;;5002633;28;20045;-83
2021/09/23 10:29:20;;;;;;;11.82;3.78;;;17.70;97.40;;;;;;4965576;28;20046;-83
2021/09/23 10:31:46;;;;;;;8.57;3.58;;;17.70;97.60;;;;;;4955807;28;20045;-86
2021/09/23 10:34:13;;;;;;;13.70;3.80;;;17.60;97.60;;;;;;4964059;28;20519;-86
2021/09/23 10:36:41;;;;;;;10.93;4.30;;;17.60;97.60;;;;;;4980123;28;20357;-84
2021/09/23 10:39:08;;;;;;;10.38;3.65;;;17.60;97.50;;;;;;4982824;28;20054;-85
2021/09/23 10:41:39;;;;;;;13.48;4.00;;;17.60;97.60;;;;;;4960266;28;20034;-85
2021/09/23 10:44:05;;;;;;;11.27;3.28;;;17.60;97.50;;;;;;4965661;28;20049;-86
2021/09/23 10:46:33;;;;;;;6.90;3.40;;;17.60;97.60;;;;;;4971555;28;20433;-89
2021/09/23 10:49:02;;;;;;;7.85;3.25;;;17.70;98.00;;;;;;4952999;28;20042;-87
2021/09/23 10:51:35;;;;;;;6.95;3.42;;;17.70;97.80;;;;;;4968500;28;20033;-88
2021/09/23 10:54:04;;;;;;;8.75;2.83;;;17.80;97.90;;;;;;4964291;28;20385;-84
2021/09/23 10:56:31;;;;;;;8.73;2.60;;;17.80;97.80;;;;;;4959517;28;20041;-85
2021/09/23 10:58:58;;;;;;;9.20;2.65;;;17.90;97.60;;;;;;4963379;28;20368;-88
2021/09/23 11:01:29;;;;;;;11.02;2.40;;;18.00;97.40;;;;;;4992917;28;20038;-85
2021/09/23 11:03:57;;;;;;;9.80;2.60;;;18.00;97.20;;;;;;4999356;28;20038;-84
2021/09/23 11:06:30;;;;;;;13.93;3.58;;;18.00;97.20;;;;;;5006008;28;20038;-86
2021/09/23 11:08:57;;;;;;;7.88;2.88;;;18.10;97.20;;;;;;5002378;28;20400;-86
2021/09/23 11:11:24;;;;;;;10.35;2.35;;;18.10;97.20;;;;;;4964223;28;20126;-87
2021/09/23 11:13:50;;;;;;;7.60;2.50;;;18.00;97.00;;;;;;4962435;28;20044;-85
2021/09/23 11:16:18;;;;;;;10.90;2.90;;;18.00;96.90;;;;;;4993872;28;20124;-84
2021/09/23 11:18:44;;;;;;;10.30;2.72;;;18.10;96.70;;;;;;5004000;28;21473;-84
2021/09/23 11:21:10;;;;;;;6.90;2.50;;;18.00;96.70;;;;;;5012314;28;20271;-85
2021/09/23 11:23:37;;;;;;;6.90;2.17;;;18.10;96.80;;;;;;4997789;28;20046;-85
2021/09/23 11:26:05;;;;;;;7.20;2.40;;;18.10;96.60;;;;;;5008240;28;20049;-84
2021/09/23 11:28:34;;;;;;;7.80;2.47;;;18.10;96.60;;;;;;5006464;28;20415;-87
2021/09/23 11:31:00;;;;;;;12.32;2.50;;;18.10;96.60;;;;;;4986038;28;20038;-85
2021/09/23 11:33:36;;;;;;;8.25;2.47;;;18.10;96.70;;;;;;4988190;28;20033;-86
2021/09/23 11:36:01;;;;;;;9.05;2.35;;;18.10;96.80;;;;;;4986464;28;20583;-85
2021/09/23 11:38:34;;;;;;;10.80;2.03;;;18.10;96.50;;;;;;5001908;28;20037;-89
2021/09/23 11:41:00;;;;;;;10.43;2.40;;;18.20;96.60;;;;;;5005070;28;20137;-84
2021/09/23 11:43:29;;;;;;;18.23;2.58;;;18.20;96.50;;;;;;5022159;28;20044;-85
2021/09/23 11:45:56;;;;;;;9.43;2.80;;;18.20;96.50;;;;;;5002927;28;20041;-86
2021/09/23 11:48:24;;;;;;;8.32;2.20;;;18.10;96.40;;;;;;4981131;28;20396;-87
2021/09/23 11:50:57;;;;;;;8.80;2.42;;;18.10;96.50;;;;;;4990797;28;20029;-86
2021/09/23 11:53:29;;;;;;;10.48;2.75;;;18.10;96.30;;;;;;4997423;28;20513;-86
2021/09/23 11:56:05;;;;;;;7.68;2.00;;;18.00;96.60;;;;;;4996066;28;20516;-85
2021/09/23 11:58:35;;;;;;;9.40;2.38;;;18.00;96.70;;;;;;5005956;28;20172;-85
2021/09/23 12:01:02;;;;;;;10.60;1.88;;;18.00;96.80;;;;;;5005995;28;20067;-86
2021/09/23 12:03:27;;;;;;;7.65;2.40;;;17.90;96.90;;;;;;5001230;28;20508;-85
2021/09/23 12:05:56;;;;;;;10.25;2.78;;;17.90;97.00;;;;;;4984300;28;20128;-86
2021/09/23 12:08:29;;;;;;;8.18;2.60;;;17.80;97.10;;;;;;5001967;28;20444;-86
2021/09/23 12:10:59;;;;;;;8.68;2.25;;;17.80;97.20;;;;;;5000675;28;20038;-86
2021/09/23 12:13:39;;;;;;;7.78;2.20;;;17.70;97.30;;;;;;5012690;28;20033;-85
2021/09/23 12:16:18;;;;;;;15.38;2.55;;;17.70;97.60;;;;;;5005673;28;20033;-85
2021/09/23 12:18:46;;;;;;;9.07;2.38;;;17.60;97.80;;;;;;4981773;28;20116;-86
2021/09/23 12:21:20;;;;;;;10.25;2.58;;;17.50;98.00;;;;;;5000202;28;20096;-85
2021/09/23 12:23:57;;;;;;;13.30;2.58;;;17.40;98.20;;;;;;4989727;28;20042;-86
2021/09/23 12:26:40;;;;;;;10.35;2.22;;;17.30;98.40;;;;;;5014795;28;20048;-85
2021/09/23 12:29:07;;;;;;;14.43;2.92;;;17.30;98.70;;;;;;4982703;28;20038;-85
2021/09/23 12:31:46;;;;;;;11.70;2.83;;;17.20;98.90;;;;;;5005524;28;20040;-86
2021/09/23 12:34:20;;;;;;;12.45;2.80;;;17.20;99.20;;;;;;5005143;28;20574;-86
2021/09/23 12:36:59;;;;;;;11.90;3.83;;;17.10;99.50;;;;;;4999270;28;20092;-87